createdAt,value
2018-09-14T00:02:26.148Z,88.10
2018-09-14T00:05:59.368Z,88.00
2018-09-14T00:09:32.616Z,88.20
2018-09-14T00:13:06.036Z,88.40
2018-09-14T00:16:39.255Z,88.50
2018-09-14T00:20:12.476Z,87.90
2018-09-14T00:23:45.707Z,87.80
2018-09-14T00:27:18.920Z,87.60
2018-09-14T00:30:52.132Z,87.30
2018-09-14T00:34:25.364Z,87.10
2018-09-14T00:37:58.580Z,87.00
2018-09-14T00:41:31.801Z,87.00
2018-09-14T00:45:05.373Z,87.10
2018-09-14T00:48:38.685Z,87.40
2018-09-14T00:52:11.904Z,87.10
2018-09-14T00:55:45.116Z,87.10
2018-09-14T00:59:18.327Z,87.20
2018-09-14T01:02:51.579Z,87.50
2018-09-14T01:06:24.798Z,87.60
2018-09-14T01:09:58.032Z,87.40
2018-09-14T01:13:31.248Z,87.50
2018-09-14T01:17:04.477Z,87.10
2018-09-14T01:20:37.697Z,86.80
2018-09-14T01:24:10.908Z,86.30
2018-09-14T01:27:44.116Z,86.40
2018-09-14T01:31:17.340Z,86.30
2018-09-14T01:34:50.568Z,86.30
2018-09-14T01:38:23.796Z,86.60
2018-09-14T01:41:57.020Z,86.60
2018-09-14T01:45:30.235Z,86.90
2018-09-14T01:49:03.450Z,86.60
2018-09-14T01:52:36.870Z,86.20
2018-09-14T01:56:10.092Z,86.40
2018-09-14T01:59:43.312Z,86.40
2018-09-14T02:03:16.582Z,86.60
2018-09-14T02:06:49.803Z,86.80
2018-09-14T02:10:23.891Z,86.50
2018-09-14T02:13:57.092Z,86.40
2018-09-14T02:17:30.326Z,86.50
2018-09-14T02:21:03.548Z,86.70
2018-09-14T02:24:36.760Z,86.50
2018-09-14T02:28:09.988Z,86.40
2018-09-14T02:31:43.216Z,86.20
2018-09-14T02:35:16.428Z,86.70
2018-09-14T02:38:49.639Z,87.00
2018-09-14T02:42:22.872Z,86.90
2018-09-14T02:45:56.093Z,87.00
2018-09-14T02:49:29.303Z,87.00
2018-09-14T02:53:02.559Z,87.40
2018-09-14T02:56:35.788Z,87.30
2018-09-14T03:00:09.127Z,87.00
2018-09-14T03:03:42.529Z,87.00
2018-09-14T03:07:15.767Z,87.00
2018-09-14T03:10:48.987Z,86.90
2018-09-14T03:14:22.210Z,86.90
2018-09-14T03:17:55.439Z,86.90
2018-09-14T03:21:28.668Z,86.60
2018-09-14T03:25:01.883Z,86.70
2018-09-14T03:28:35.124Z,86.80
2018-09-14T03:32:08.406Z,87.10
2018-09-14T03:35:41.579Z,87.20
2018-09-14T03:39:14.827Z,87.00
2018-09-14T03:42:48.015Z,86.90
2018-09-14T03:46:21.235Z,86.70
2018-09-14T03:49:54.451Z,86.60
2018-09-14T03:53:27.727Z,86.40
2018-09-14T03:57:03.646Z,86.50
2018-09-14T04:00:36.860Z,86.70
2018-09-14T04:04:10.068Z,86.80
2018-09-14T04:07:43.375Z,86.70
2018-09-14T04:11:16.575Z,86.40
2018-09-14T04:14:49.802Z,86.40
2018-09-14T04:18:23.256Z,86.30
2018-09-14T04:21:56.473Z,86.30
2018-09-14T04:25:29.679Z,86.00
2018-09-14T04:29:02.915Z,86.00
2018-09-14T04:32:36.133Z,85.90
2018-09-14T04:36:09.365Z,86.00
2018-09-14T04:39:42.576Z,85.90
2018-09-14T04:43:16.140Z,86.20
2018-09-14T04:46:49.365Z,86.30
2018-09-14T04:50:22.838Z,86.30
2018-09-14T04:53:56.047Z,86.20
2018-09-14T04:57:29.324Z,86.20
2018-09-14T05:01:02.619Z,86.00
2018-09-14T05:04:35.826Z,86.00
2018-09-14T05:08:09.138Z,86.10
2018-09-14T05:11:42.368Z,86.20
2018-09-14T05:15:15.675Z,85.90
2018-09-14T05:18:48.896Z,85.80
2018-09-14T05:22:22.175Z,85.50
2018-09-14T05:25:55.639Z,85.50
2018-09-14T05:29:28.892Z,85.40
2018-09-14T05:33:02.141Z,85.50
2018-09-14T05:36:35.380Z,85.20
2018-09-14T05:40:08.832Z,85.00
2018-09-14T05:43:42.163Z,85.10
2018-09-14T05:47:15.398Z,85.20
2018-09-14T05:50:48.649Z,85.00
2018-09-14T05:54:21.877Z,84.40
2018-09-14T05:57:55.107Z,84.10
2018-09-14T06:01:28.355Z,84.20
2018-09-14T06:05:01.598Z,84.00
2018-09-14T06:08:34.838Z,83.70
2018-09-14T06:12:08.095Z,83.80
2018-09-14T06:15:41.331Z,83.50
2018-09-14T06:19:14.611Z,83.70
2018-09-14T06:22:47.852Z,83.80
2018-09-14T06:26:21.092Z,83.60
2018-09-14T06:29:54.349Z,83.20
2018-09-14T06:33:27.608Z,82.40
2018-09-14T06:37:00.864Z,82.40
2018-09-14T06:40:34.142Z,81.20
2018-09-14T06:44:07.768Z,80.90
2018-09-14T06:47:41.008Z,80.50
2018-09-14T06:51:14.267Z,79.60
2018-09-14T06:54:47.508Z,78.90
2018-09-14T06:58:20.745Z,78.00
2018-09-14T07:01:54.008Z,77.30
2018-09-14T07:05:27.263Z,77.00
2018-09-14T07:09:00.519Z,77.20
2018-09-14T07:12:33.776Z,77.60
2018-09-14T07:16:07.020Z,77.40
2018-09-14T07:19:40.251Z,76.80
2018-09-14T07:23:13.483Z,76.70
2018-09-14T07:26:46.742Z,76.50
2018-09-14T07:30:20.027Z,76.00
2018-09-14T07:33:53.289Z,75.50
2018-09-14T07:37:26.512Z,75.00
2018-09-14T07:40:59.756Z,74.40
2018-09-14T07:44:33.006Z,74.00
2018-09-14T07:48:06.351Z,73.60
2018-09-14T07:51:39.560Z,70.90
2018-09-14T07:55:12.783Z,69.90
2018-09-14T07:58:46.016Z,69.90
2018-09-14T08:02:19.266Z,69.20
2018-09-14T08:05:52.483Z,69.60
2018-09-14T08:09:25.811Z,70.20
2018-09-14T08:12:58.975Z,70.00
2018-09-14T08:16:32.203Z,69.30
2018-09-14T08:20:05.592Z,68.50
2018-09-14T08:23:38.902Z,68.20
2018-09-14T08:27:12.190Z,68.10
2018-09-14T08:30:45.380Z,67.40
2018-09-14T08:34:18.612Z,67.50
2018-09-14T08:37:51.862Z,67.50
2018-09-14T08:41:25.108Z,66.50
2018-09-14T08:44:58.343Z,66.40
2018-09-14T08:48:31.589Z,66.40
2018-09-14T08:52:04.968Z,66.00
2018-09-14T08:55:38.226Z,66.10
2018-09-14T08:59:11.456Z,66.50
2018-09-14T09:02:45.041Z,66.20
2018-09-14T09:06:18.287Z,66.50
2018-09-14T09:09:51.523Z,66.30
2018-09-14T09:13:24.763Z,66.10
2018-09-14T09:16:57.979Z,65.00
2018-09-14T09:20:31.228Z,64.80
2018-09-14T09:24:04.462Z,64.50
2018-09-14T09:27:37.697Z,63.60
2018-09-14T09:31:10.959Z,62.80
2018-09-14T09:34:44.196Z,62.00
2018-09-14T09:38:17.440Z,61.00
2018-09-14T09:41:50.672Z,60.60
2018-09-14T09:45:23.927Z,60.80
2018-09-14T09:48:57.153Z,60.20
2018-09-14T09:52:30.380Z,60.00
2018-09-14T09:56:03.615Z,59.80
2018-09-14T09:59:36.883Z,59.70
2018-09-14T10:03:20.460Z,60.10
2018-09-14T10:06:54.939Z,60.60
2018-09-14T10:10:28.723Z,60.50
2018-09-14T10:14:01.963Z,60.50
2018-09-14T10:17:35.193Z,60.90
2018-09-14T10:21:08.469Z,60.20
2018-09-14T10:24:41.666Z,60.00
2018-09-14T10:28:14.920Z,59.00
2018-09-14T10:31:48.162Z,57.90
2018-09-14T10:35:21.392Z,56.80
2018-09-14T10:38:54.629Z,56.30
2018-09-14T10:42:27.906Z,56.10
2018-09-14T10:46:01.127Z,56.10
2018-09-14T10:49:34.393Z,55.80
2018-09-14T10:53:07.644Z,55.30
2018-09-14T10:56:40.880Z,55.10
2018-09-14T11:00:14.125Z,55.40
2018-09-14T11:03:47.559Z,55.60
2018-09-14T11:07:20.844Z,56.10
2018-09-14T11:10:54.076Z,56.20
2018-09-14T11:14:27.317Z,56.20
2018-09-14T11:18:00.619Z,56.20
2018-09-14T11:21:34.135Z,55.80
2018-09-14T11:25:07.422Z,55.80
2018-09-14T11:28:40.627Z,55.30
2018-09-14T11:32:13.867Z,55.00
2018-09-14T11:35:47.458Z,54.60
2018-09-14T11:39:20.881Z,54.70
2018-09-14T11:42:54.301Z,54.40
2018-09-14T11:46:27.635Z,54.70
2018-09-14T11:50:00.997Z,54.50
2018-09-14T11:53:34.429Z,53.60
2018-09-14T11:57:07.836Z,53.40
2018-09-14T12:00:41.871Z,52.80
2018-09-14T12:04:15.323Z,52.80
2018-09-14T12:07:48.624Z,52.60
2018-09-14T12:11:22.113Z,52.20
2018-09-14T12:14:55.516Z,52.10
2018-09-14T12:18:28.909Z,52.20
2018-09-14T12:22:02.329Z,52.30
2018-09-14T12:25:37.437Z,52.90
2018-09-14T12:29:10.765Z,53.40
2018-09-14T12:32:45.063Z,53.70
2018-09-14T12:36:18.411Z,54.10
2018-09-14T12:39:51.928Z,54.10
2018-09-14T12:43:25.262Z,54.00
2018-09-14T12:46:58.642Z,54.20
2018-09-14T12:50:31.876Z,54.20
2018-09-14T12:54:05.122Z,53.90
2018-09-14T12:57:38.357Z,53.70
2018-09-14T13:01:11.601Z,53.40
2018-09-14T13:04:44.836Z,53.20
2018-09-14T13:08:18.079Z,53.00
2018-09-14T13:11:51.327Z,52.40
2018-09-14T13:15:24.570Z,52.50
2018-09-14T13:18:57.860Z,52.70
2018-09-14T13:22:31.113Z,52.70
2018-09-14T13:26:04.344Z,52.90
2018-09-14T13:29:37.590Z,52.90
2018-09-14T13:33:10.815Z,53.20
2018-09-14T13:36:44.060Z,53.40
2018-09-14T13:40:18.265Z,53.40
2018-09-14T13:43:51.500Z,53.50
2018-09-14T13:47:24.751Z,53.40
2018-09-14T13:50:57.980Z,53.60
2018-09-14T13:54:31.216Z,53.60
2018-09-14T13:58:04.476Z,53.60
2018-09-14T14:01:37.753Z,53.10
2018-09-14T14:05:10.994Z,53.00
2018-09-14T14:08:44.234Z,52.40
2018-09-14T14:12:17.488Z,52.30
2018-09-14T14:15:50.831Z,51.90
2018-09-14T14:19:24.108Z,51.90
2018-09-14T14:22:57.457Z,52.00
2018-09-14T14:26:31.025Z,51.90
2018-09-14T14:30:04.271Z,51.80
2018-09-14T14:33:37.513Z,51.40
2018-09-14T14:37:11.613Z,51.60
2018-09-14T14:40:44.859Z,51.80
2018-09-14T14:44:18.650Z,51.80
2018-09-14T14:47:51.904Z,51.90
2018-09-14T14:51:25.727Z,51.70
2018-09-14T14:54:58.964Z,51.50
2018-09-14T14:58:32.235Z,51.30
2018-09-14T15:02:05.827Z,51.10
2018-09-14T15:05:39.069Z,51.00
2018-09-14T15:12:56.701Z,51.10
2018-09-14T15:16:30.104Z,51.70
2018-09-14T15:20:03.736Z,51.80
2018-09-14T15:23:36.992Z,51.60
2018-09-14T15:27:10.218Z,51.60
2018-09-14T15:30:43.463Z,51.80
2018-09-14T15:34:16.704Z,51.80
2018-09-14T15:37:50.316Z,52.00
2018-09-14T15:41:23.591Z,52.10
2018-09-14T15:44:56.909Z,52.10
2018-09-14T15:48:30.143Z,52.20
2018-09-14T15:52:03.388Z,51.90
2018-09-14T15:55:37.560Z,51.90
2018-09-14T15:59:10.799Z,51.90
2018-09-14T16:02:44.384Z,51.90
2018-09-14T16:06:17.610Z,52.00
2018-09-14T16:09:50.864Z,52.00
2018-09-14T16:13:24.642Z,52.30
2018-09-14T16:16:57.896Z,52.50
2018-09-14T16:20:32.024Z,52.70
2018-09-14T16:24:06.151Z,52.90
2018-09-14T16:27:40.196Z,53.10
2018-09-14T16:31:13.815Z,53.30
2018-09-14T16:34:47.581Z,53.60
2018-09-14T16:38:21.456Z,53.70
2018-09-14T16:41:54.679Z,53.80
2018-09-14T16:45:27.924Z,53.80
2018-09-14T16:49:01.156Z,53.80
2018-09-14T16:52:34.384Z,54.00
2018-09-14T16:56:07.616Z,54.40
2018-09-14T16:59:40.840Z,54.70
2018-09-14T17:03:14.095Z,54.70
2018-09-14T17:06:47.336Z,54.70
2018-09-14T17:10:21.035Z,55.00
2018-09-14T17:13:54.467Z,55.10
2018-09-14T17:17:28.127Z,55.30
2018-09-14T17:21:01.392Z,55.40
2018-09-14T17:24:34.631Z,55.60
2018-09-14T17:28:08.407Z,55.80
2018-09-14T17:31:42.144Z,56.00
2018-09-14T17:35:16.352Z,56.40
2018-09-14T17:38:50.164Z,56.50
2018-09-14T17:42:23.908Z,56.60
2018-09-14T17:45:57.151Z,56.80
2018-09-14T17:49:30.456Z,56.90
2018-09-14T17:53:03.692Z,57.00
2018-09-14T17:56:36.921Z,57.10
2018-09-14T18:00:10.180Z,57.40
2018-09-14T18:03:43.404Z,57.50
2018-09-14T18:07:16.618Z,57.70
2018-09-14T18:10:51.128Z,57.90
2018-09-14T18:14:24.355Z,58.00
2018-09-14T18:17:57.600Z,58.20
2018-09-14T18:21:30.824Z,58.30
2018-09-14T18:25:04.052Z,58.50
2018-09-14T18:28:37.279Z,58.60
2018-09-14T18:32:10.541Z,59.30
2018-09-14T18:35:43.838Z,58.90
2018-09-14T18:39:17.018Z,59.00
2018-09-14T18:42:50.235Z,59.30
2018-09-14T18:46:23.466Z,59.50
2018-09-14T18:49:56.690Z,59.70
2018-09-14T18:53:29.884Z,59.80
2018-09-14T18:57:03.120Z,60.00
2018-09-14T19:00:36.358Z,60.20
2018-09-14T19:04:09.581Z,60.40
2018-09-14T19:07:42.816Z,60.70
2018-09-14T19:11:16.041Z,61.00
2018-09-14T19:14:49.265Z,61.30
2018-09-14T19:18:22.474Z,61.60
2018-09-14T19:21:55.695Z,62.00
2018-09-14T19:25:28.931Z,62.40
2018-09-14T19:29:02.140Z,62.50
2018-09-14T19:32:35.356Z,62.80
2018-09-14T19:36:08.579Z,63.00
2018-09-14T19:39:41.788Z,63.20
2018-09-14T19:43:15.008Z,63.20
2018-09-14T19:46:48.236Z,63.40
2018-09-14T19:50:21.508Z,63.50
2018-09-14T19:53:54.762Z,63.60
2018-09-14T19:57:28.046Z,63.80
2018-09-14T20:01:01.237Z,64.80
2018-09-14T20:04:34.482Z,64.30
2018-09-14T20:08:07.703Z,64.50
2018-09-14T20:11:41.005Z,64.80
2018-09-14T20:15:14.205Z,65.00
2018-09-14T20:18:47.533Z,65.20
2018-09-14T20:22:20.758Z,65.30
2018-09-14T20:25:54.000Z,65.30
2018-09-14T20:29:27.210Z,65.90
2018-09-14T20:33:00.428Z,65.70
2018-09-14T20:36:33.645Z,66.00
2018-09-14T20:40:06.865Z,66.50
2018-09-14T20:43:40.084Z,66.70
2018-09-14T20:47:13.314Z,67.00
2018-09-14T20:50:46.530Z,67.40
2018-09-14T20:54:19.747Z,67.60
2018-09-14T20:57:52.980Z,67.80
2018-09-14T21:01:26.227Z,68.10
2018-09-14T21:04:59.452Z,68.20
2018-09-14T21:08:32.681Z,68.60
2018-09-14T21:12:05.904Z,69.40
2018-09-14T21:15:39.152Z,69.20
2018-09-14T21:19:12.365Z,69.60
2018-09-14T21:22:45.655Z,70.00
2018-09-14T21:26:18.923Z,70.40
2018-09-14T21:29:52.133Z,70.70
2018-09-14T21:33:25.352Z,71.00
2018-09-14T21:36:58.596Z,71.30
2018-09-14T21:40:31.871Z,71.60
2018-09-14T21:44:05.039Z,71.70
2018-09-14T21:47:38.262Z,71.90
2018-09-14T21:51:11.487Z,72.00
2018-09-14T21:54:44.719Z,72.10
2018-09-14T21:58:17.935Z,72.30
2018-09-14T22:01:51.171Z,72.50
2018-09-14T22:05:24.368Z,72.80
2018-09-14T22:08:57.619Z,73.00
2018-09-14T22:12:30.841Z,73.20
2018-09-14T22:16:04.047Z,73.50
2018-09-14T22:19:37.261Z,74.50
2018-09-14T22:23:10.477Z,74.20
2018-09-14T22:26:43.692Z,74.50
2018-09-14T22:30:16.895Z,74.60
2018-09-14T22:33:50.129Z,75.00
2018-09-14T22:37:23.381Z,75.40
2018-09-14T22:40:56.599Z,75.70
2018-09-14T22:44:29.811Z,76.00
2018-09-14T22:48:03.074Z,75.90
2018-09-14T22:51:36.340Z,76.20
2018-09-14T22:55:09.737Z,76.50
2018-09-14T22:58:42.956Z,76.70
2018-09-14T23:02:16.190Z,77.00
2018-09-14T23:05:49.395Z,77.10
2018-09-14T23:09:22.683Z,77.50
2018-09-14T23:12:55.852Z,77.80
2018-09-14T23:16:29.072Z,78.00
2018-09-14T23:20:02.283Z,78.20
2018-09-14T23:23:35.508Z,78.30
2018-09-14T23:27:08.793Z,78.60
2018-09-14T23:30:41.995Z,78.70
2018-09-14T23:34:15.212Z,78.80
2018-09-14T23:37:48.432Z,78.70
2018-09-14T23:41:21.648Z,78.60
2018-09-14T23:44:54.864Z,78.40
2018-09-14T23:48:28.083Z,78.50
2018-09-14T23:52:01.517Z,78.40
2018-09-14T23:55:34.731Z,78.50
2018-09-14T23:59:07.948Z,78.30
